createdAt,value
2023-12-08T00:01:16.467Z,2.70
2023-12-08T00:03:43.915Z,2.70
2023-12-08T00:06:12.165Z,2.70
2023-12-08T00:08:39.604Z,2.70
2023-12-08T00:11:07.464Z,2.70
2023-12-08T00:13:35.405Z,2.70
2023-12-08T00:16:02.676Z,2.70
2023-12-08T00:18:29.844Z,2.70
2023-12-08T00:20:56.975Z,2.70
2023-12-08T00:23:25.218Z,2.70
2023-12-08T00:25:52.095Z,2.70
2023-12-08T00:28:19.714Z,2.70
2023-12-08T00:30:46.556Z,2.70
2023-12-08T00:33:13.684Z,2.70
2023-12-08T00:35:40.698Z,2.70
2023-12-08T00:38:07.611Z,2.70
2023-12-08T00:40:34.444Z,2.70
2023-12-08T00:43:01.246Z,2.70
2023-12-08T00:45:28.089Z,2.70
2023-12-08T00:47:55.006Z,2.70
2023-12-08T00:50:21.897Z,2.70
2023-12-08T00:52:48.706Z,2.70
2023-12-08T00:55:15.602Z,2.70
2023-12-08T00:57:42.609Z,2.60
2023-12-08T01:00:10.028Z,2.60
2023-12-08T01:02:37.001Z,2.70
2023-12-08T01:05:04.054Z,2.60
2023-12-08T01:07:30.896Z,2.70
2023-12-08T01:09:57.875Z,2.60
2023-12-08T01:12:24.728Z,2.70
2023-12-08T01:14:51.644Z,2.70
2023-12-08T01:17:18.731Z,2.60
2023-12-08T01:19:45.651Z,2.70
2023-12-08T01:22:12.528Z,2.70
2023-12-08T01:24:39.436Z,2.70
2023-12-08T01:27:06.310Z,2.70
2023-12-08T01:29:33.188Z,2.70
2023-12-08T01:32:00.028Z,2.70
2023-12-08T01:34:26.897Z,2.70
2023-12-08T01:36:53.824Z,2.70
2023-12-08T01:39:20.720Z,2.70
2023-12-08T01:41:51.811Z,2.70
2023-12-08T01:44:19.092Z,2.70
2023-12-08T01:46:47.114Z,2.80
2023-12-08T01:49:16.022Z,2.80
2023-12-08T01:51:44.862Z,2.80
2023-12-08T01:54:13.551Z,2.80
2023-12-08T01:56:41.428Z,2.80
2023-12-08T01:59:09.724Z,2.80
2023-12-08T02:01:36.703Z,2.80
2023-12-08T02:04:04.045Z,2.80
2023-12-08T02:06:31.083Z,2.80
2023-12-08T02:08:59.338Z,2.80
2023-12-08T02:11:26.769Z,2.80
2023-12-08T02:13:54.921Z,2.90
2023-12-08T02:16:41.707Z,2.80
2023-12-08T02:19:09.684Z,2.80
2023-12-08T02:21:37.284Z,2.90
2023-12-08T02:24:04.513Z,2.90
2023-12-08T02:26:31.954Z,2.90
2023-12-08T02:28:59.072Z,2.90
2023-12-08T02:31:36.613Z,2.90
2023-12-08T02:34:05.095Z,2.90
2023-12-08T02:36:35.255Z,2.90
2023-12-08T02:39:04.121Z,2.80
2023-12-08T02:41:31.405Z,2.80
2023-12-08T02:43:58.288Z,2.80
2023-12-08T02:46:25.161Z,2.70
2023-12-08T02:48:54.824Z,2.70
2023-12-08T02:51:22.516Z,2.60
2023-12-08T02:53:49.441Z,2.60
2023-12-08T02:56:16.321Z,2.60
2023-12-08T02:58:43.180Z,2.50
2023-12-08T03:01:10.117Z,2.50
2023-12-08T03:03:37.105Z,2.50
2023-12-08T03:06:04.139Z,2.50
2023-12-08T03:08:31.308Z,2.40
2023-12-08T03:10:58.186Z,2.50
2023-12-08T03:13:25.095Z,2.40
2023-12-08T03:15:51.927Z,2.40
2023-12-08T03:18:18.879Z,2.40
2023-12-08T03:20:45.773Z,2.40
2023-12-08T03:23:12.644Z,2.40
2023-12-08T03:25:39.560Z,2.40
2023-12-08T03:28:06.382Z,2.40
2023-12-08T03:30:35.706Z,2.30
2023-12-08T03:33:02.805Z,2.30
2023-12-08T03:35:30.057Z,2.30
2023-12-08T03:37:56.963Z,2.30
2023-12-08T03:40:23.836Z,2.30
2023-12-08T03:42:50.631Z,2.30
2023-12-08T03:45:17.491Z,2.30
2023-12-08T03:47:44.511Z,2.30
2023-12-08T03:50:11.557Z,2.30
2023-12-08T03:52:38.406Z,2.30
2023-12-08T03:55:05.610Z,2.30
2023-12-08T03:57:32.472Z,2.30
2023-12-08T03:59:59.342Z,2.30
2023-12-08T04:02:26.181Z,2.30
2023-12-08T04:04:53.070Z,2.30
2023-12-08T04:07:19.844Z,2.30
2023-12-08T04:09:46.717Z,2.30
2023-12-08T04:12:13.635Z,2.30
2023-12-08T04:14:41.338Z,2.30
2023-12-08T04:17:08.860Z,2.30
2023-12-08T04:19:35.902Z,2.30
2023-12-08T04:22:02.973Z,2.30
2023-12-08T04:24:29.862Z,2.30
2023-12-08T04:26:56.761Z,2.30
2023-12-08T04:29:23.698Z,2.30
2023-12-08T04:31:50.578Z,2.30
2023-12-08T04:34:17.546Z,2.30
2023-12-08T04:36:44.541Z,2.30
2023-12-08T04:39:11.422Z,2.40
2023-12-08T04:41:38.443Z,2.40
2023-12-08T04:44:05.373Z,2.40
2023-12-08T04:46:32.260Z,2.40
2023-12-08T04:48:59.284Z,2.40
2023-12-08T04:51:26.397Z,2.30
2023-12-08T04:54:01.200Z,2.40
2023-12-08T04:56:28.580Z,2.40
2023-12-08T04:58:55.809Z,2.40
2023-12-08T05:01:22.687Z,2.40
2023-12-08T05:03:49.626Z,2.40
2023-12-08T05:06:17.729Z,2.40
2023-12-08T05:08:44.774Z,2.50
2023-12-08T05:11:11.772Z,2.40
2023-12-08T05:13:38.693Z,2.40
2023-12-08T05:16:07.360Z,2.50
2023-12-08T05:18:34.342Z,2.40
2023-12-08T05:21:01.373Z,2.40
2023-12-08T05:23:28.239Z,2.40
2023-12-08T05:25:55.140Z,2.50
2023-12-08T05:28:22.496Z,2.50
2023-12-08T05:30:49.433Z,2.50
2023-12-08T05:33:16.475Z,2.40
2023-12-08T05:35:43.811Z,2.50
2023-12-08T05:38:10.793Z,2.50
2023-12-08T05:40:38.009Z,2.50
2023-12-08T05:43:05.361Z,2.50
2023-12-08T05:45:32.404Z,2.50
2023-12-08T05:47:59.405Z,2.50
2023-12-08T05:50:26.746Z,2.50
2023-12-08T05:52:53.572Z,2.50
2023-12-08T05:55:20.417Z,2.50
2023-12-08T05:57:47.340Z,2.60
2023-12-08T06:00:15.197Z,2.60
2023-12-08T06:02:42.338Z,2.60
2023-12-08T06:05:10.213Z,2.60
2023-12-08T06:07:37.224Z,2.60
2023-12-08T06:10:04.588Z,2.60
2023-12-08T06:12:31.465Z,2.70
2023-12-08T06:15:00.914Z,2.60
2023-12-08T06:17:29.164Z,2.60
2023-12-08T06:19:57.062Z,2.60
2023-12-08T06:22:23.937Z,2.70
2023-12-08T06:24:50.870Z,2.70
2023-12-08T06:27:17.739Z,2.70
2023-12-08T06:29:44.772Z,2.70
2023-12-08T06:32:11.723Z,2.70
2023-12-08T06:34:39.215Z,2.70
2023-12-08T06:37:07.015Z,2.70
2023-12-08T06:39:33.915Z,2.70
2023-12-08T06:42:00.950Z,2.70
2023-12-08T06:44:29.066Z,2.70
2023-12-08T06:46:55.999Z,2.70
2023-12-08T06:49:23.184Z,2.80
2023-12-08T06:51:50.308Z,2.80
2023-12-08T06:54:17.745Z,2.80
2023-12-08T06:56:44.785Z,2.80
2023-12-08T06:59:12.058Z,2.80
2023-12-08T07:01:39.005Z,2.80
2023-12-08T07:04:06.129Z,2.80
2023-12-08T07:06:34.312Z,2.80
2023-12-08T07:09:01.722Z,2.90
2023-12-08T07:11:28.827Z,2.90
2023-12-08T07:13:55.894Z,2.90
2023-12-08T07:16:22.899Z,2.90
2023-12-08T07:18:50.037Z,2.90
2023-12-08T07:21:17.191Z,2.90
2023-12-08T07:23:44.060Z,3.00
2023-12-08T07:26:11.555Z,3.00
2023-12-08T07:28:38.725Z,3.00
2023-12-08T07:31:05.784Z,3.00
2023-12-08T07:33:32.771Z,3.00
2023-12-08T07:35:59.812Z,3.00
2023-12-08T07:38:26.781Z,3.00
2023-12-08T07:40:54.431Z,3.00
2023-12-08T07:43:21.342Z,3.00
2023-12-08T07:45:48.303Z,3.00
2023-12-08T07:48:15.444Z,3.00
2023-12-08T07:50:44.063Z,3.00
2023-12-08T07:53:11.919Z,3.10
2023-12-08T07:55:38.907Z,3.10
2023-12-08T07:58:06.045Z,3.10
2023-12-08T08:00:33.553Z,3.10
2023-12-08T08:03:00.688Z,3.10
2023-12-08T08:05:27.832Z,3.20
2023-12-08T08:07:54.896Z,3.30
2023-12-08T08:10:22.965Z,3.40
2023-12-08T08:12:50.030Z,3.30
2023-12-08T08:15:17.046Z,3.30
2023-12-08T08:17:44.066Z,3.30
2023-12-08T08:20:11.414Z,3.30
2023-12-08T08:22:38.479Z,3.30
2023-12-08T08:25:06.106Z,3.30
2023-12-08T08:27:34.744Z,3.30
2023-12-08T08:30:03.144Z,3.40
2023-12-08T08:32:30.147Z,3.40
2023-12-08T08:34:58.241Z,3.40
2023-12-08T08:37:26.873Z,3.40
2023-12-08T08:39:54.192Z,3.40
2023-12-08T08:42:21.585Z,3.50
2023-12-08T08:44:48.796Z,3.70
2023-12-08T08:47:20.600Z,3.80
2023-12-08T08:49:48.718Z,3.80
2023-12-08T08:52:15.734Z,3.80
2023-12-08T08:54:42.703Z,3.80
2023-12-08T08:57:09.892Z,3.80
2023-12-08T08:59:36.835Z,3.80
2023-12-08T09:02:03.997Z,3.80
2023-12-08T09:04:31.279Z,3.80
2023-12-08T09:06:58.627Z,3.80
2023-12-08T09:09:27.968Z,3.80
2023-12-08T09:11:57.016Z,3.80
2023-12-08T09:14:28.918Z,3.90
2023-12-08T09:16:55.884Z,3.90
2023-12-08T09:19:22.861Z,3.90
2023-12-08T09:21:54.244Z,3.90
2023-12-08T09:24:24.787Z,4.00
2023-12-08T09:26:51.752Z,4.00
2023-12-08T09:29:18.916Z,4.00
2023-12-08T09:31:46.677Z,4.00
2023-12-08T09:34:13.818Z,4.00
2023-12-08T09:36:41.331Z,4.10
2023-12-08T09:39:28.589Z,4.20
2023-12-08T09:42:02.506Z,4.20
2023-12-08T09:44:30.539Z,4.20
2023-12-08T09:47:01.540Z,4.20
2023-12-08T09:49:31.426Z,4.30
2023-12-08T09:51:58.730Z,4.30
2023-12-08T09:54:25.753Z,4.30
2023-12-08T09:56:55.287Z,4.30
2023-12-08T09:59:24.983Z,4.40
2023-12-08T10:01:52.367Z,4.40
2023-12-08T10:04:19.895Z,4.40
2023-12-08T10:06:48.985Z,4.40
2023-12-08T10:09:20.506Z,4.40
2023-12-08T10:11:47.639Z,4.40
2023-12-08T10:14:15.930Z,4.50
2023-12-08T10:16:47.090Z,4.50
2023-12-08T10:19:14.424Z,4.50
2023-12-08T10:21:41.440Z,4.50
2023-12-08T10:24:11.443Z,4.60
2023-12-08T10:26:38.368Z,4.60
2023-12-08T10:29:05.820Z,4.70
2023-12-08T10:31:32.665Z,4.70
2023-12-08T10:33:59.611Z,4.80
2023-12-08T10:36:26.859Z,4.80
2023-12-08T10:38:54.113Z,4.80
2023-12-08T10:41:21.265Z,4.90
2023-12-08T10:43:48.259Z,4.90
2023-12-08T10:46:15.404Z,5.00
2023-12-08T10:48:43.870Z,5.00
2023-12-08T10:51:15.422Z,5.00
2023-12-08T10:53:45.490Z,5.00
2023-12-08T10:56:16.772Z,5.10
2023-12-08T10:58:53.528Z,5.10
2023-12-08T11:01:22.872Z,5.10
2023-12-08T11:04:00.776Z,5.30
2023-12-08T11:06:42.978Z,5.30
2023-12-08T11:09:13.545Z,5.40
2023-12-08T11:11:48.520Z,5.50
2023-12-08T11:14:26.183Z,5.50
2023-12-08T11:17:05.276Z,5.60
2023-12-08T11:19:33.045Z,5.60
2023-12-08T11:22:00.949Z,5.70
2023-12-08T11:24:30.017Z,5.70
2023-12-08T11:27:14.021Z,5.70
2023-12-08T11:30:00.680Z,5.70
2023-12-08T11:32:51.156Z,5.80
2023-12-08T11:35:19.457Z,5.80
2023-12-08T11:37:47.540Z,5.70
2023-12-08T11:40:14.703Z,5.70
2023-12-08T11:42:45.572Z,5.80
2023-12-08T11:45:12.981Z,5.80
2023-12-08T11:47:42.388Z,5.80
2023-12-08T11:50:12.670Z,5.90
2023-12-08T11:52:43.155Z,5.90
2023-12-08T11:55:22.754Z,5.90
2023-12-08T11:58:05.585Z,5.90
2023-12-08T12:00:35.225Z,6.00
2023-12-08T12:03:05.300Z,6.00
2023-12-08T12:05:32.650Z,6.00
2023-12-08T12:08:00.312Z,6.00
2023-12-08T12:10:29.648Z,6.00
2023-12-08T12:13:03.007Z,6.10
2023-12-08T12:15:34.742Z,6.10
2023-12-08T12:18:02.684Z,6.20
2023-12-08T12:20:31.460Z,6.20
2023-12-08T12:22:58.630Z,6.20
2023-12-08T12:25:26.633Z,6.20
2023-12-08T12:27:54.830Z,6.20
2023-12-08T12:30:22.563Z,6.20
2023-12-08T12:32:50.395Z,6.30
2023-12-08T12:35:18.986Z,6.30
2023-12-08T12:37:47.000Z,6.40
2023-12-08T12:40:13.978Z,6.50
2023-12-08T12:42:44.858Z,6.50
2023-12-08T12:45:25.727Z,6.60
2023-12-08T12:48:09.074Z,6.70
2023-12-08T12:50:56.031Z,6.70
2023-12-08T12:53:24.098Z,6.80
2023-12-08T12:55:51.310Z,6.80
2023-12-08T12:58:21.632Z,6.80
2023-12-08T13:00:49.308Z,6.80
2023-12-08T13:03:18.788Z,6.90
2023-12-08T13:05:46.590Z,6.80
2023-12-08T13:08:16.510Z,6.90
2023-12-08T13:10:45.051Z,6.90
2023-12-08T13:13:15.057Z,6.90
2023-12-08T13:15:42.751Z,7.00
2023-12-08T13:18:10.411Z,7.00
2023-12-08T13:20:38.866Z,7.10
2023-12-08T13:23:06.078Z,7.20
2023-12-08T13:25:32.991Z,7.20
2023-12-08T13:28:00.176Z,7.20
2023-12-08T13:30:27.249Z,7.30
2023-12-08T13:32:56.608Z,7.30
2023-12-08T13:35:25.186Z,7.30
2023-12-08T13:37:52.125Z,7.40
2023-12-08T13:40:18.967Z,7.40
2023-12-08T13:42:45.804Z,7.40
2023-12-08T13:45:12.774Z,7.50
2023-12-08T13:47:40.276Z,7.50
2023-12-08T13:50:07.343Z,7.50
2023-12-08T13:52:34.337Z,7.50
2023-12-08T13:55:01.264Z,7.50
2023-12-08T13:57:28.402Z,7.60
2023-12-08T13:59:55.695Z,7.60
2023-12-08T14:02:23.290Z,7.60
2023-12-08T14:04:50.394Z,7.60
2023-12-08T14:07:17.500Z,7.60
2023-12-08T14:09:44.487Z,7.70
2023-12-08T14:12:11.911Z,7.70
2023-12-08T14:14:39.079Z,7.70
2023-12-08T14:17:06.117Z,7.60
2023-12-08T14:19:33.532Z,7.70
2023-12-08T14:22:00.805Z,7.70
2023-12-08T14:24:28.004Z,7.70
2023-12-08T14:26:56.208Z,7.70
2023-12-08T14:29:23.642Z,7.70
2023-12-08T14:31:51.200Z,7.70
2023-12-08T14:34:18.464Z,7.70
2023-12-08T14:36:47.414Z,7.80
2023-12-08T14:39:14.943Z,7.80
2023-12-08T14:41:43.398Z,7.80
2023-12-08T14:44:10.346Z,7.80
2023-12-08T14:46:37.197Z,7.90
2023-12-08T14:49:10.198Z,7.90
2023-12-08T14:51:37.553Z,7.90
2023-12-08T14:54:04.629Z,7.90
2023-12-08T14:56:31.569Z,8.00
2023-12-08T14:58:58.405Z,8.00
2023-12-08T15:01:25.446Z,8.00
2023-12-08T15:03:52.424Z,8.00
2023-12-08T15:06:19.524Z,8.00
2023-12-08T15:08:46.828Z,8.00
2023-12-08T15:11:13.748Z,8.10
2023-12-08T15:13:40.641Z,8.10
2023-12-08T15:16:08.241Z,8.10
2023-12-08T15:18:35.465Z,8.10
2023-12-08T15:21:02.667Z,8.10
2023-12-08T15:23:37.418Z,8.10
2023-12-08T15:26:04.916Z,8.10
2023-12-08T15:28:31.840Z,8.00
2023-12-08T15:30:58.787Z,8.00
2023-12-08T15:33:25.760Z,8.10
2023-12-08T15:35:52.715Z,8.00
2023-12-08T15:38:20.018Z,8.10
2023-12-08T15:40:47.082Z,8.00
2023-12-08T15:43:14.067Z,8.00
2023-12-08T15:45:41.100Z,8.00
2023-12-08T15:48:08.290Z,8.00
2023-12-08T15:50:35.215Z,8.00
2023-12-08T15:53:02.141Z,8.00
2023-12-08T15:55:28.967Z,8.00
2023-12-08T15:57:55.828Z,8.10
2023-12-08T16:00:22.876Z,8.10
2023-12-08T16:02:49.859Z,8.10
2023-12-08T16:05:17.085Z,8.10
2023-12-08T16:07:44.390Z,8.10
2023-12-08T16:10:11.484Z,8.10
2023-12-08T16:12:38.529Z,8.10
2023-12-08T16:15:07.562Z,8.10
2023-12-08T16:17:35.193Z,8.10
2023-12-08T16:20:02.436Z,8.10
2023-12-08T16:22:29.500Z,8.20
2023-12-08T16:24:56.825Z,8.20
2023-12-08T16:27:24.045Z,8.10
2023-12-08T16:29:52.173Z,8.20
2023-12-08T16:32:19.579Z,8.20
2023-12-08T16:34:46.704Z,8.20
2023-12-08T16:37:13.805Z,8.20
2023-12-08T16:39:40.701Z,8.20
2023-12-08T16:42:07.817Z,8.20
2023-12-08T16:44:34.877Z,8.20
2023-12-08T16:47:02.282Z,8.20
2023-12-08T16:49:29.587Z,8.20
2023-12-08T16:51:56.867Z,8.20
2023-12-08T16:54:23.995Z,8.20
2023-12-08T16:56:52.109Z,8.20
2023-12-08T16:59:20.052Z,8.20
2023-12-08T17:01:47.104Z,8.20
2023-12-08T17:04:14.173Z,8.20
2023-12-08T17:06:40.993Z,8.20
2023-12-08T17:09:08.414Z,8.30
2023-12-08T17:11:35.446Z,8.20
2023-12-08T17:14:10.050Z,8.20
2023-12-08T17:16:36.886Z,8.20
2023-12-08T17:19:03.956Z,8.30
2023-12-08T17:21:30.854Z,8.20
2023-12-08T17:23:57.791Z,8.20
2023-12-08T17:26:32.972Z,8.20
2023-12-08T17:29:06.021Z,8.20
2023-12-08T17:31:33.049Z,8.20
2023-12-08T17:34:08.767Z,8.20
2023-12-08T17:36:42.888Z,8.30
2023-12-08T17:39:09.793Z,8.20
2023-12-08T17:41:36.700Z,8.20
2023-12-08T17:44:04.784Z,8.30
2023-12-08T17:46:31.728Z,8.30
2023-12-08T17:48:59.603Z,8.30
2023-12-08T17:51:26.703Z,8.30
2023-12-08T17:53:53.697Z,8.30
2023-12-08T17:56:20.727Z,8.30
2023-12-08T17:58:47.642Z,8.30
2023-12-08T18:01:14.610Z,8.30
2023-12-08T18:03:41.885Z,8.30
2023-12-08T18:06:15.293Z,8.30
2023-12-08T18:08:42.472Z,8.30
2023-12-08T18:11:21.377Z,8.40
2023-12-08T18:13:48.260Z,8.40
2023-12-08T18:16:22.793Z,8.40
2023-12-08T18:18:49.919Z,8.40
2023-12-08T18:21:26.750Z,8.40
2023-12-08T18:23:54.377Z,8.30
2023-12-08T18:26:22.053Z,8.40
2023-12-08T18:31:28.424Z,8.40
2023-12-08T18:33:57.367Z,8.40
2023-12-08T18:36:27.100Z,8.30
2023-12-08T18:38:56.021Z,8.30
2023-12-08T18:41:23.251Z,8.40
2023-12-08T18:43:50.443Z,8.40
2023-12-08T18:46:17.799Z,8.30
2023-12-08T18:48:46.036Z,8.20
2023-12-08T18:51:14.323Z,8.30
2023-12-08T18:53:41.638Z,8.30
2023-12-08T18:56:09.392Z,8.20
2023-12-08T18:58:37.394Z,8.20
2023-12-08T19:01:05.054Z,8.20
2023-12-08T19:03:32.264Z,8.20
2023-12-08T19:06:02.272Z,8.20
2023-12-08T19:08:29.215Z,8.20
2023-12-08T19:10:56.146Z,8.20
2023-12-08T19:13:23.134Z,8.20
2023-12-08T19:15:51.366Z,8.20
2023-12-08T19:18:18.499Z,8.10
2023-12-08T19:20:47.377Z,8.10
2023-12-08T19:23:14.330Z,8.00
2023-12-08T19:25:43.985Z,8.00
2023-12-08T19:28:14.197Z,8.10
2023-12-08T19:30:41.128Z,8.00
2023-12-08T19:33:08.862Z,8.00
2023-12-08T19:35:36.460Z,7.90
2023-12-08T19:38:04.301Z,7.90
2023-12-08T19:40:31.272Z,7.90
2023-12-08T19:42:58.234Z,7.90
2023-12-08T19:45:25.273Z,7.80
2023-12-08T19:47:52.804Z,7.80
2023-12-08T19:50:19.925Z,7.70
2023-12-08T19:52:46.893Z,7.70
2023-12-08T19:55:15.528Z,7.70
2023-12-08T19:57:42.906Z,7.70
2023-12-08T20:00:12.502Z,7.70
2023-12-08T20:02:39.555Z,7.60
2023-12-08T20:05:06.669Z,7.60
2023-12-08T20:07:33.660Z,7.50
2023-12-08T20:10:00.648Z,7.50
2023-12-08T20:12:28.283Z,7.50
2023-12-08T20:14:56.149Z,7.50
2023-12-08T20:17:24.038Z,7.50
2023-12-08T20:19:52.780Z,7.50
2023-12-08T20:22:22.483Z,7.50
2023-12-08T20:24:50.215Z,7.60
2023-12-08T20:27:18.261Z,7.60
2023-12-08T20:29:45.503Z,7.60
2023-12-08T20:32:12.598Z,7.60
2023-12-08T20:34:39.713Z,7.60
2023-12-08T20:37:06.799Z,7.70
2023-12-08T20:39:33.730Z,7.70
2023-12-08T20:42:00.947Z,7.60
2023-12-08T20:44:27.903Z,7.70
2023-12-08T20:46:56.668Z,7.70
2023-12-08T20:49:27.944Z,7.70
2023-12-08T20:51:55.058Z,7.70
2023-12-08T20:54:23.143Z,7.70
2023-12-08T20:56:50.088Z,7.70
2023-12-08T20:59:17.255Z,7.70
2023-12-08T21:01:44.423Z,7.60
2023-12-08T21:04:11.327Z,7.70
2023-12-08T21:06:38.538Z,7.70
2023-12-08T21:09:05.913Z,7.60
2023-12-08T21:11:32.809Z,7.60
2023-12-08T21:14:00.359Z,7.60
2023-12-08T21:16:27.344Z,7.60
2023-12-08T21:18:54.424Z,7.60
2023-12-08T21:21:21.744Z,7.60
2023-12-08T21:23:48.760Z,7.60
2023-12-08T21:26:15.910Z,7.50
2023-12-08T21:28:42.965Z,7.50
2023-12-08T21:31:09.884Z,7.50
2023-12-08T21:33:37.009Z,7.50
2023-12-08T21:36:04.713Z,7.50
2023-12-08T21:38:31.563Z,7.50
2023-12-08T21:40:58.626Z,7.50
2023-12-08T21:43:25.571Z,7.50
2023-12-08T21:45:52.564Z,7.50
2023-12-08T21:48:19.894Z,7.40
2023-12-08T21:50:47.082Z,7.40
2023-12-08T21:53:13.941Z,7.40
2023-12-08T21:55:40.933Z,7.40
2023-12-08T21:58:07.959Z,7.30
2023-12-08T22:00:35.232Z,7.30
2023-12-08T22:03:03.324Z,7.30
2023-12-08T22:05:30.366Z,7.20
2023-12-08T22:07:57.377Z,7.20
2023-12-08T22:10:24.234Z,7.20
2023-12-08T22:12:51.192Z,7.30
2023-12-08T22:15:18.257Z,7.20
2023-12-08T22:17:45.291Z,7.30
2023-12-08T22:20:12.378Z,7.20
2023-12-08T22:22:40.487Z,7.20
2023-12-08T22:25:11.595Z,7.20
2023-12-08T22:27:38.686Z,7.10
2023-12-08T22:30:07.323Z,7.20
2023-12-08T22:32:34.450Z,7.20
2023-12-08T22:35:02.113Z,7.20
2023-12-08T22:37:29.413Z,7.20
2023-12-08T22:39:56.518Z,7.20
2023-12-08T22:42:23.753Z,7.20
2023-12-08T22:44:51.045Z,7.20
2023-12-08T22:47:18.120Z,7.10
2023-12-08T22:49:45.336Z,7.10
2023-12-08T22:52:13.257Z,7.20
2023-12-08T22:54:40.258Z,7.20
2023-12-08T22:57:07.183Z,7.20
2023-12-08T22:59:34.029Z,7.20
2023-12-08T23:02:01.038Z,7.20
2023-12-08T23:04:28.162Z,7.20
2023-12-08T23:06:55.213Z,7.30
2023-12-08T23:09:22.430Z,7.30
2023-12-08T23:11:49.341Z,7.20
2023-12-08T23:14:16.301Z,7.20
2023-12-08T23:16:43.842Z,7.20
2023-12-08T23:19:10.875Z,7.20
2023-12-08T23:21:37.784Z,7.30
2023-12-08T23:24:04.939Z,7.20
2023-12-08T23:26:31.997Z,7.20
2023-12-08T23:28:58.921Z,7.20
2023-12-08T23:31:25.901Z,7.20
2023-12-08T23:33:52.922Z,7.10
2023-12-08T23:36:19.941Z,7.10
2023-12-08T23:38:47.287Z,7.10
2023-12-08T23:41:14.345Z,7.10
2023-12-08T23:43:41.492Z,7.10
2023-12-08T23:46:09.177Z,7.10
2023-12-08T23:48:36.142Z,7.10
2023-12-08T23:51:03.221Z,7.10
2023-12-08T23:53:30.307Z,7.10
2023-12-08T23:55:58.621Z,7.10
2023-12-08T23:58:25.462Z,7.10
